sensor_id;sensor_type;location;lat;lon;timestamp;temperature;humidity
16879;DHT22;8556;52.218;9.884;2023-09-30T00:00:15;13.70;99.90
16879;DHT22;8556;52.218;9.884;2023-09-30T00:02:42;13.60;99.90
16879;DHT22;8556;52.218;9.884;2023-09-30T00:05:09;13.70;99.90
16879;DHT22;8556;52.218;9.884;2023-09-30T00:07:36;13.50;99.90
16879;DHT22;8556;52.218;9.884;2023-09-30T00:10:04;13.40;99.90
16879;DHT22;8556;52.218;9.884;2023-09-30T00:12:31;13.40;99.90
16879;DHT22;8556;52.218;9.884;2023-09-30T00:14:59;13.50;99.90
16879;DHT22;8556;52.218;9.884;2023-09-30T00:17:25;13.50;99.90
16879;DHT22;8556;52.218;9.884;2023-09-30T00:19:52;13.40;99.90
16879;DHT22;8556;52.218;9.884;2023-09-30T00:22:19;13.50;99.90
16879;DHT22;8556;52.218;9.884;2023-09-30T00:24:46;13.40;99.90
16879;DHT22;8556;52.218;9.884;2023-09-30T00:27:13;13.30;99.90
16879;DHT22;8556;52.218;9.884;2023-09-30T00:29:40;13.30;99.90
16879;DHT22;8556;52.218;9.884;2023-09-30T00:32:08;13.40;99.90
16879;DHT22;8556;52.218;9.884;2023-09-30T00:34:35;13.40;99.90
16879;DHT22;8556;52.218;9.884;2023-09-30T00:37:02;13.20;99.90
16879;DHT22;8556;52.218;9.884;2023-09-30T00:39:29;13.30;99.90
16879;DHT22;8556;52.218;9.884;2023-09-30T00:41:56;13.30;99.90
16879;DHT22;8556;52.218;9.884;2023-09-30T00:44:24;13.30;99.90
16879;DHT22;8556;52.218;9.884;2023-09-30T00:46:51;13.60;99.90
16879;DHT22;8556;52.218;9.884;2023-09-30T00:49:19;13.30;99.90
16879;DHT22;8556;52.218;9.884;2023-09-30T00:51:46;13.30;99.90
16879;DHT22;8556;52.218;9.884;2023-09-30T00:54:16;13.20;99.90
16879;DHT22;8556;52.218;9.884;2023-09-30T00:56:44;13.20;99.90
16879;DHT22;8556;52.218;9.884;2023-09-30T00:59:12;13.20;99.90
16879;DHT22;8556;52.218;9.884;2023-09-30T01:01:40;13.20;99.90
16879;DHT22;8556;52.218;9.884;2023-09-30T01:04:07;13.20;99.90
16879;DHT22;8556;52.218;9.884;2023-09-30T01:06:36;13.20;99.90
16879;DHT22;8556;52.218;9.884;2023-09-30T01:09:02;13.20;99.90
16879;DHT22;8556;52.218;9.884;2023-09-30T01:11:29;13.20;99.90
16879;DHT22;8556;52.218;9.884;2023-09-30T01:13:56;13.20;99.90
16879;DHT22;8556;52.218;9.884;2023-09-30T01:16:24;13.10;99.90
16879;DHT22;8556;52.218;9.884;2023-09-30T01:18:50;13.10;99.90
16879;DHT22;8556;52.218;9.884;2023-09-30T01:21:18;13.10;99.90
16879;DHT22;8556;52.218;9.884;2023-09-30T01:23:46;13.00;99.90
16879;DHT22;8556;52.218;9.884;2023-09-30T01:26:13;12.90;99.90
16879;DHT22;8556;52.218;9.884;2023-09-30T01:28:41;13.00;99.90
16879;DHT22;8556;52.218;9.884;2023-09-30T01:31:08;12.80;99.90
16879;DHT22;8556;52.218;9.884;2023-09-30T01:33:34;12.90;99.90
16879;DHT22;8556;52.218;9.884;2023-09-30T01:36:01;12.90;99.90
16879;DHT22;8556;52.218;9.884;2023-09-30T01:38:28;12.80;99.90
16879;DHT22;8556;52.218;9.884;2023-09-30T01:40:56;12.80;99.90
16879;DHT22;8556;52.218;9.884;2023-09-30T01:43:23;12.80;99.90
16879;DHT22;8556;52.218;9.884;2023-09-30T01:45:50;12.80;99.90
16879;DHT22;8556;52.218;9.884;2023-09-30T01:48:17;12.80;99.90
16879;DHT22;8556;52.218;9.884;2023-09-30T01:50:44;12.80;99.90
16879;DHT22;8556;52.218;9.884;2023-09-30T01:53:10;12.90;99.90
16879;DHT22;8556;52.218;9.884;2023-09-30T01:55:37;12.90;99.90
16879;DHT22;8556;52.218;9.884;2023-09-30T01:58:05;12.90;99.90
16879;DHT22;8556;52.218;9.884;2023-09-30T02:00:33;12.90;99.90
16879;DHT22;8556;52.218;9.884;2023-09-30T02:03:00;12.80;99.90
16879;DHT22;8556;52.218;9.884;2023-09-30T02:05:27;12.90;99.90
16879;DHT22;8556;52.218;9.884;2023-09-30T02:07:54;12.90;99.90
16879;DHT22;8556;52.218;9.884;2023-09-30T02:10:21;12.90;99.90
16879;DHT22;8556;52.218;9.884;2023-09-30T02:12:48;12.90;99.90
16879;DHT22;8556;52.218;9.884;2023-09-30T02:15:16;12.90;99.90
16879;DHT22;8556;52.218;9.884;2023-09-30T02:17:43;12.90;99.90
16879;DHT22;8556;52.218;9.884;2023-09-30T02:20:12;13.00;99.90
16879;DHT22;8556;52.218;9.884;2023-09-30T02:22:41;13.00;99.90
16879;DHT22;8556;52.218;9.884;2023-09-30T02:25:09;13.10;99.90
16879;DHT22;8556;52.218;9.884;2023-09-30T02:27:38;13.10;99.90
16879;DHT22;8556;52.218;9.884;2023-09-30T02:30:08;13.10;99.90
16879;DHT22;8556;52.218;9.884;2023-09-30T02:32:38;13.10;99.90
16879;DHT22;8556;52.218;9.884;2023-09-30T02:35:07;13.20;99.90
16879;DHT22;8556;52.218;9.884;2023-09-30T02:37:34;13.20;99.90
16879;DHT22;8556;52.218;9.884;2023-09-30T02:40:02;13.10;99.90
16879;DHT22;8556;52.218;9.884;2023-09-30T02:42:30;13.20;99.90
16879;DHT22;8556;52.218;9.884;2023-09-30T02:44:59;13.10;99.90
16879;DHT22;8556;52.218;9.884;2023-09-30T02:47:26;13.10;99.90
16879;DHT22;8556;52.218;9.884;2023-09-30T02:49:56;13.10;99.90
16879;DHT22;8556;52.218;9.884;2023-09-30T02:52:23;13.10;99.90
16879;DHT22;8556;52.218;9.884;2023-09-30T02:54:50;13.00;99.90
16879;DHT22;8556;52.218;9.884;2023-09-30T02:57:18;13.00;99.90
16879;DHT22;8556;52.218;9.884;2023-09-30T02:59:45;13.00;99.90
16879;DHT22;8556;52.218;9.884;2023-09-30T03:02:12;13.00;99.90
16879;DHT22;8556;52.218;9.884;2023-09-30T03:04:38;12.90;99.90
16879;DHT22;8556;52.218;9.884;2023-09-30T03:07:07;13.00;99.90
16879;DHT22;8556;52.218;9.884;2023-09-30T03:09:34;13.00;99.90
16879;DHT22;8556;52.218;9.884;2023-09-30T03:12:01;13.00;99.90
16879;DHT22;8556;52.218;9.884;2023-09-30T03:14:30;13.00;99.90
16879;DHT22;8556;52.218;9.884;2023-09-30T03:16:57;13.10;99.90
16879;DHT22;8556;52.218;9.884;2023-09-30T03:19:24;13.10;99.90
16879;DHT22;8556;52.218;9.884;2023-09-30T03:21:51;13.10;99.90
16879;DHT22;8556;52.218;9.884;2023-09-30T03:24:19;13.10;99.90
16879;DHT22;8556;52.218;9.884;2023-09-30T03:26:46;13.10;99.90
16879;DHT22;8556;52.218;9.884;2023-09-30T03:29:13;13.10;99.90
16879;DHT22;8556;52.218;9.884;2023-09-30T03:31:40;13.00;99.90
16879;DHT22;8556;52.218;9.884;2023-09-30T03:34:07;13.00;99.90
16879;DHT22;8556;52.218;9.884;2023-09-30T03:36:34;13.00;99.90
16879;DHT22;8556;52.218;9.884;2023-09-30T03:39:01;13.00;99.90
16879;DHT22;8556;52.218;9.884;2023-09-30T03:41:34;13.00;99.90
16879;DHT22;8556;52.218;9.884;2023-09-30T03:44:02;13.00;99.90
16879;DHT22;8556;52.218;9.884;2023-09-30T03:46:29;13.00;99.90
16879;DHT22;8556;52.218;9.884;2023-09-30T03:48:56;12.90;99.90
16879;DHT22;8556;52.218;9.884;2023-09-30T03:51:24;12.90;99.90
16879;DHT22;8556;52.218;9.884;2023-09-30T03:53:51;12.90;99.90
16879;DHT22;8556;52.218;9.884;2023-09-30T03:56:18;12.80;99.90
16879;DHT22;8556;52.218;9.884;2023-09-30T03:58:49;12.80;99.90
16879;DHT22;8556;52.218;9.884;2023-09-30T04:01:17;12.80;99.90
16879;DHT22;8556;52.218;9.884;2023-09-30T04:03:45;12.80;99.90
16879;DHT22;8556;52.218;9.884;2023-09-30T04:06:12;12.80;99.90
16879;DHT22;8556;52.218;9.884;2023-09-30T04:08:39;12.60;99.90
16879;DHT22;8556;52.218;9.884;2023-09-30T04:11:06;12.60;99.90
16879;DHT22;8556;52.218;9.884;2023-09-30T04:13:33;12.60;99.90
16879;DHT22;8556;52.218;9.884;2023-09-30T04:16:01;12.50;99.90
16879;DHT22;8556;52.218;9.884;2023-09-30T04:18:28;12.40;99.90
16879;DHT22;8556;52.218;9.884;2023-09-30T04:20:56;12.40;99.90
16879;DHT22;8556;52.218;9.884;2023-09-30T04:23:22;12.40;99.90
16879;DHT22;8556;52.218;9.884;2023-09-30T04:25:49;12.30;99.90
16879;DHT22;8556;52.218;9.884;2023-09-30T04:28:16;12.40;99.90
16879;DHT22;8556;52.218;9.884;2023-09-30T04:30:47;12.20;99.90
16879;DHT22;8556;52.218;9.884;2023-09-30T04:33:15;12.20;99.90
16879;DHT22;8556;52.218;9.884;2023-09-30T04:35:43;12.30;99.90
16879;DHT22;8556;52.218;9.884;2023-09-30T04:38:10;12.20;99.90
16879;DHT22;8556;52.218;9.884;2023-09-30T04:40:37;12.10;99.90
16879;DHT22;8556;52.218;9.884;2023-09-30T04:43:04;12.10;99.90
16879;DHT22;8556;52.218;9.884;2023-09-30T04:45:30;12.10;99.90
16879;DHT22;8556;52.218;9.884;2023-09-30T04:47:58;12.00;99.90
16879;DHT22;8556;52.218;9.884;2023-09-30T04:50:28;12.10;99.90
16879;DHT22;8556;52.218;9.884;2023-09-30T04:52:56;12.10;99.90
16879;DHT22;8556;52.218;9.884;2023-09-30T04:55:23;12.10;99.90
16879;DHT22;8556;52.218;9.884;2023-09-30T04:57:50;12.10;99.90
16879;DHT22;8556;52.218;9.884;2023-09-30T05:00:18;12.10;99.90
16879;DHT22;8556;52.218;9.884;2023-09-30T05:02:50;12.10;99.90
16879;DHT22;8556;52.218;9.884;2023-09-30T05:05:17;12.10;99.90
16879;DHT22;8556;52.218;9.884;2023-09-30T05:07:46;12.20;99.90
16879;DHT22;8556;52.218;9.884;2023-09-30T05:10:13;12.10;99.90
16879;DHT22;8556;52.218;9.884;2023-09-30T05:12:42;12.10;99.90
16879;DHT22;8556;52.218;9.884;2023-09-30T05:15:11;12.10;99.90
16879;DHT22;8556;52.218;9.884;2023-09-30T05:17:38;12.00;99.90
16879;DHT22;8556;52.218;9.884;2023-09-30T05:20:06;12.10;99.90
16879;DHT22;8556;52.218;9.884;2023-09-30T05:22:33;12.10;99.90
16879;DHT22;8556;52.218;9.884;2023-09-30T05:25:01;12.00;99.90
16879;DHT22;8556;52.218;9.884;2023-09-30T05:27:28;12.10;99.90
16879;DHT22;8556;52.218;9.884;2023-09-30T05:29:55;12.00;99.90
16879;DHT22;8556;52.218;9.884;2023-09-30T05:32:22;12.00;99.90
16879;DHT22;8556;52.218;9.884;2023-09-30T05:34:49;11.90;99.90
16879;DHT22;8556;52.218;9.884;2023-09-30T05:37:16;12.10;99.90
16879;DHT22;8556;52.218;9.884;2023-09-30T05:39:43;12.10;99.90
16879;DHT22;8556;52.218;9.884;2023-09-30T05:42:11;12.10;99.90
16879;DHT22;8556;52.218;9.884;2023-09-30T05:44:39;12.00;99.90
16879;DHT22;8556;52.218;9.884;2023-09-30T05:47:07;12.10;99.90
16879;DHT22;8556;52.218;9.884;2023-09-30T05:49:34;12.10;99.90
16879;DHT22;8556;52.218;9.884;2023-09-30T05:52:01;12.10;99.90
16879;DHT22;8556;52.218;9.884;2023-09-30T05:54:28;12.10;99.90
16879;DHT22;8556;52.218;9.884;2023-09-30T05:56:55;12.20;99.90
16879;DHT22;8556;52.218;9.884;2023-09-30T05:59:23;12.10;99.90
16879;DHT22;8556;52.218;9.884;2023-09-30T06:01:51;12.10;99.90
16879;DHT22;8556;52.218;9.884;2023-09-30T06:04:18;12.20;99.90
16879;DHT22;8556;52.218;9.884;2023-09-30T06:06:46;12.20;99.90
16879;DHT22;8556;52.218;9.884;2023-09-30T06:09:13;12.20;99.90
16879;DHT22;8556;52.218;9.884;2023-09-30T06:11:40;12.50;99.90
16879;DHT22;8556;52.218;9.884;2023-09-30T06:14:07;12.30;99.90
16879;DHT22;8556;52.218;9.884;2023-09-30T06:16:35;12.30;99.90
16879;DHT22;8556;52.218;9.884;2023-09-30T06:19:02;12.30;99.90
16879;DHT22;8556;52.218;9.884;2023-09-30T06:21:29;12.40;99.90
16879;DHT22;8556;52.218;9.884;2023-09-30T06:23:56;12.50;99.90
16879;DHT22;8556;52.218;9.884;2023-09-30T06:26:23;12.70;99.90
16879;DHT22;8556;52.218;9.884;2023-09-30T06:28:53;12.50;99.90
16879;DHT22;8556;52.218;9.884;2023-09-30T06:31:21;12.50;99.90
16879;DHT22;8556;52.218;9.884;2023-09-30T06:33:50;12.50;99.90
16879;DHT22;8556;52.218;9.884;2023-09-30T06:36:17;12.60;99.90
16879;DHT22;8556;52.218;9.884;2023-09-30T06:38:44;12.60;99.90
16879;DHT22;8556;52.218;9.884;2023-09-30T06:41:16;12.70;99.90
16879;DHT22;8556;52.218;9.884;2023-09-30T06:43:43;12.70;99.90
16879;DHT22;8556;52.218;9.884;2023-09-30T06:46:10;12.80;99.90
16879;DHT22;8556;52.218;9.884;2023-09-30T06:48:37;12.90;99.90
16879;DHT22;8556;52.218;9.884;2023-09-30T06:51:07;12.90;99.90
16879;DHT22;8556;52.218;9.884;2023-09-30T06:53:34;13.00;99.90
16879;DHT22;8556;52.218;9.884;2023-09-30T06:56:04;13.00;99.90
16879;DHT22;8556;52.218;9.884;2023-09-30T06:58:31;13.10;99.90
16879;DHT22;8556;52.218;9.884;2023-09-30T07:00:58;13.10;99.90
16879;DHT22;8556;52.218;9.884;2023-09-30T07:03:25;13.20;99.90
16879;DHT22;8556;52.218;9.884;2023-09-30T07:05:52;13.20;99.90
16879;DHT22;8556;52.218;9.884;2023-09-30T07:08:21;13.20;99.90
16879;DHT22;8556;52.218;9.884;2023-09-30T07:10:48;13.30;99.90
16879;DHT22;8556;52.218;9.884;2023-09-30T07:13:16;13.40;99.90
16879;DHT22;8556;52.218;9.884;2023-09-30T07:15:43;13.30;99.90
16879;DHT22;8556;52.218;9.884;2023-09-30T07:18:10;13.50;99.90
16879;DHT22;8556;52.218;9.884;2023-09-30T07:20:37;13.40;99.90
16879;DHT22;8556;52.218;9.884;2023-09-30T07:23:04;13.50;99.90
16879;DHT22;8556;52.218;9.884;2023-09-30T07:25:32;13.70;99.90
16879;DHT22;8556;52.218;9.884;2023-09-30T07:28:00;13.80;99.90
16879;DHT22;8556;52.218;9.884;2023-09-30T07:30:27;13.90;99.90
16879;DHT22;8556;52.218;9.884;2023-09-30T07:32:54;14.40;99.90
16879;DHT22;8556;52.218;9.884;2023-09-30T07:35:21;15.30;99.90
16879;DHT22;8556;52.218;9.884;2023-09-30T07:37:48;16.30;99.90
16879;DHT22;8556;52.218;9.884;2023-09-30T07:40:17;15.10;99.90
16879;DHT22;8556;52.218;9.884;2023-09-30T07:42:45;15.00;99.90
16879;DHT22;8556;52.218;9.884;2023-09-30T07:45:12;15.00;99.90
16879;DHT22;8556;52.218;9.884;2023-09-30T07:47:43;14.70;99.90
16879;DHT22;8556;52.218;9.884;2023-09-30T07:50:10;14.60;99.90
16879;DHT22;8556;52.218;9.884;2023-09-30T07:52:38;14.70;99.90
16879;DHT22;8556;52.218;9.884;2023-09-30T07:55:06;14.90;99.90
16879;DHT22;8556;52.218;9.884;2023-09-30T07:57:33;14.80;99.90
16879;DHT22;8556;52.218;9.884;2023-09-30T08:00:02;14.70;99.90
16879;DHT22;8556;52.218;9.884;2023-09-30T08:02:33;14.70;99.90
16879;DHT22;8556;52.218;9.884;2023-09-30T08:05:00;14.70;99.90
16879;DHT22;8556;52.218;9.884;2023-09-30T08:07:27;14.70;99.90
16879;DHT22;8556;52.218;9.884;2023-09-30T08:09:54;14.80;99.90
16879;DHT22;8556;52.218;9.884;2023-09-30T08:12:20;14.90;99.90
16879;DHT22;8556;52.218;9.884;2023-09-30T08:14:47;14.90;99.90
16879;DHT22;8556;52.218;9.884;2023-09-30T08:17:16;14.80;99.90
16879;DHT22;8556;52.218;9.884;2023-09-30T08:19:44;14.90;99.90
16879;DHT22;8556;52.218;9.884;2023-09-30T08:22:12;15.00;99.90
16879;DHT22;8556;52.218;9.884;2023-09-30T08:24:39;15.10;99.90
16879;DHT22;8556;52.218;9.884;2023-09-30T08:27:05;15.10;99.90
16879;DHT22;8556;52.218;9.884;2023-09-30T08:29:33;15.30;99.90
16879;DHT22;8556;52.218;9.884;2023-09-30T08:32:01;15.40;99.90
16879;DHT22;8556;52.218;9.884;2023-09-30T08:34:30;15.40;99.90
16879;DHT22;8556;52.218;9.884;2023-09-30T08:36:57;15.60;99.90
16879;DHT22;8556;52.218;9.884;2023-09-30T08:39:24;15.70;99.90
16879;DHT22;8556;52.218;9.884;2023-09-30T08:41:52;15.60;99.90
16879;DHT22;8556;52.218;9.884;2023-09-30T08:44:19;15.70;99.90
16879;DHT22;8556;52.218;9.884;2023-09-30T08:46:47;15.80;99.90
16879;DHT22;8556;52.218;9.884;2023-09-30T08:49:15;15.90;99.90
16879;DHT22;8556;52.218;9.884;2023-09-30T08:51:43;15.90;99.90
16879;DHT22;8556;52.218;9.884;2023-09-30T08:54:10;15.80;99.90
16879;DHT22;8556;52.218;9.884;2023-09-30T08:56:39;16.00;99.90
16879;DHT22;8556;52.218;9.884;2023-09-30T08:59:07;16.10;99.90
16879;DHT22;8556;52.218;9.884;2023-09-30T09:01:37;16.10;99.90
16879;DHT22;8556;52.218;9.884;2023-09-30T09:04:04;16.20;99.90
16879;DHT22;8556;52.218;9.884;2023-09-30T09:06:33;16.40;99.90
16879;DHT22;8556;52.218;9.884;2023-09-30T09:09:14;16.70;99.90
16879;DHT22;8556;52.218;9.884;2023-09-30T09:11:42;16.80;99.90
16879;DHT22;8556;52.218;9.884;2023-09-30T09:14:09;16.90;99.90
16879;DHT22;8556;52.218;9.884;2023-09-30T09:16:36;17.20;99.90
16879;DHT22;8556;52.218;9.884;2023-09-30T09:19:13;17.30;99.90
16879;DHT22;8556;52.218;9.884;2023-09-30T09:21:53;17.60;99.90
16879;DHT22;8556;52.218;9.884;2023-09-30T09:24:29;17.90;99.90
16879;DHT22;8556;52.218;9.884;2023-09-30T09:27:04;17.80;99.90
16879;DHT22;8556;52.218;9.884;2023-09-30T09:29:32;18.10;99.90
16879;DHT22;8556;52.218;9.884;2023-09-30T09:32:10;18.10;99.90
16879;DHT22;8556;52.218;9.884;2023-09-30T09:34:37;18.00;99.90
16879;DHT22;8556;52.218;9.884;2023-09-30T09:37:22;18.30;99.90
16879;DHT22;8556;52.218;9.884;2023-09-30T09:39:51;18.40;99.90
16879;DHT22;8556;52.218;9.884;2023-09-30T09:42:26;18.60;99.90
16879;DHT22;8556;52.218;9.884;2023-09-30T09:44:55;18.70;99.90
16879;DHT22;8556;52.218;9.884;2023-09-30T09:47:23;18.70;99.90
16879;DHT22;8556;52.218;9.884;2023-09-30T09:49:51;18.70;99.90
16879;DHT22;8556;52.218;9.884;2023-09-30T09:52:21;18.90;99.90
16879;DHT22;8556;52.218;9.884;2023-09-30T09:54:50;19.10;99.90
16879;DHT22;8556;52.218;9.884;2023-09-30T09:57:17;19.10;99.90
16879;DHT22;8556;52.218;9.884;2023-09-30T09:59:45;19.10;99.90
16879;DHT22;8556;52.218;9.884;2023-09-30T10:02:14;19.20;99.90
16879;DHT22;8556;52.218;9.884;2023-09-30T10:04:41;19.50;99.90
16879;DHT22;8556;52.218;9.884;2023-09-30T10:07:10;19.40;99.90
16879;DHT22;8556;52.218;9.884;2023-09-30T10:09:43;19.60;99.90
16879;DHT22;8556;52.218;9.884;2023-09-30T10:12:14;20.10;99.90
16879;DHT22;8556;52.218;9.884;2023-09-30T10:14:41;20.10;99.90
16879;DHT22;8556;52.218;9.884;2023-09-30T10:17:09;20.20;99.90
16879;DHT22;8556;52.218;9.884;2023-09-30T10:20:03;20.00;99.90
16879;DHT22;8556;52.218;9.884;2023-09-30T10:22:30;20.10;99.90
16879;DHT22;8556;52.218;9.884;2023-09-30T10:24:58;20.00;99.90
16879;DHT22;8556;52.218;9.884;2023-09-30T10:27:33;19.90;99.90
16879;DHT22;8556;52.218;9.884;2023-09-30T10:30:07;19.90;99.90
16879;DHT22;8556;52.218;9.884;2023-09-30T10:33:10;20.00;99.90
16879;DHT22;8556;52.218;9.884;2023-09-30T10:35:44;20.50;99.90
16879;DHT22;8556;52.218;9.884;2023-09-30T10:38:39;20.10;99.90
16879;DHT22;8556;52.218;9.884;2023-09-30T10:41:10;19.70;99.90
16879;DHT22;8556;52.218;9.884;2023-09-30T10:44:33;20.20;99.90
16879;DHT22;8556;52.218;9.884;2023-09-30T10:47:36;20.50;99.90
16879;DHT22;8556;52.218;9.884;2023-09-30T10:50:04;20.70;99.90
16879;DHT22;8556;52.218;9.884;2023-09-30T10:52:51;20.90;99.90
16879;DHT22;8556;52.218;9.884;2023-09-30T10:55:19;21.10;99.90
16879;DHT22;8556;52.218;9.884;2023-09-30T10:57:50;21.40;99.90
16879;DHT22;8556;52.218;9.884;2023-09-30T11:00:20;21.40;99.90
16879;DHT22;8556;52.218;9.884;2023-09-30T11:02:48;21.20;99.90
16879;DHT22;8556;52.218;9.884;2023-09-30T11:05:17;20.20;99.90
16879;DHT22;8556;52.218;9.884;2023-09-30T11:07:46;20.30;99.90
16879;DHT22;8556;52.218;9.884;2023-09-30T11:10:16;20.30;99.90
16879;DHT22;8556;52.218;9.884;2023-09-30T11:12:54;20.30;99.90
16879;DHT22;8556;52.218;9.884;2023-09-30T11:15:23;19.80;99.90
16879;DHT22;8556;52.218;9.884;2023-09-30T11:17:52;19.90;99.90
16879;DHT22;8556;52.218;9.884;2023-09-30T11:20:19;20.30;99.90
16879;DHT22;8556;52.218;9.884;2023-09-30T11:22:47;20.70;99.90
16879;DHT22;8556;52.218;9.884;2023-09-30T11:25:17;21.00;99.90
16879;DHT22;8556;52.218;9.884;2023-09-30T11:27:45;21.00;99.90
16879;DHT22;8556;52.218;9.884;2023-09-30T11:30:13;21.20;99.90
16879;DHT22;8556;52.218;9.884;2023-09-30T11:32:41;21.10;99.90
16879;DHT22;8556;52.218;9.884;2023-09-30T11:35:09;21.40;99.90
16879;DHT22;8556;52.218;9.884;2023-09-30T11:37:36;21.40;99.90
16879;DHT22;8556;52.218;9.884;2023-09-30T11:40:11;21.30;99.90
16879;DHT22;8556;52.218;9.884;2023-09-30T11:42:39;21.30;99.90
16879;DHT22;8556;52.218;9.884;2023-09-30T11:45:19;21.40;99.90
16879;DHT22;8556;52.218;9.884;2023-09-30T11:47:49;21.30;99.90
16879;DHT22;8556;52.218;9.884;2023-09-30T11:50:16;21.30;99.90
16879;DHT22;8556;52.218;9.884;2023-09-30T11:52:44;21.50;99.90
16879;DHT22;8556;52.218;9.884;2023-09-30T11:55:12;21.60;99.90
16879;DHT22;8556;52.218;9.884;2023-09-30T11:57:42;21.80;99.90
16879;DHT22;8556;52.218;9.884;2023-09-30T12:00:10;22.20;99.90
16879;DHT22;8556;52.218;9.884;2023-09-30T12:02:40;22.10;99.90
16879;DHT22;8556;52.218;9.884;2023-09-30T12:05:09;22.30;99.90
16879;DHT22;8556;52.218;9.884;2023-09-30T12:07:37;22.30;99.90
16879;DHT22;8556;52.218;9.884;2023-09-30T12:10:07;22.10;99.90
16879;DHT22;8556;52.218;9.884;2023-09-30T12:12:34;22.60;99.90
16879;DHT22;8556;52.218;9.884;2023-09-30T12:15:01;22.60;99.90
16879;DHT22;8556;52.218;9.884;2023-09-30T12:17:28;22.80;99.90
16879;DHT22;8556;52.218;9.884;2023-09-30T12:19:55;22.30;99.90
16879;DHT22;8556;52.218;9.884;2023-09-30T12:22:23;22.20;99.90
16879;DHT22;8556;52.218;9.884;2023-09-30T12:24:50;21.50;99.90
16879;DHT22;8556;52.218;9.884;2023-09-30T12:27:17;20.90;99.90
16879;DHT22;8556;52.218;9.884;2023-09-30T12:29:44;20.70;99.90
16879;DHT22;8556;52.218;9.884;2023-09-30T12:32:13;21.00;99.90
16879;DHT22;8556;52.218;9.884;2023-09-30T12:34:40;20.70;99.90
16879;DHT22;8556;52.218;9.884;2023-09-30T12:37:07;20.50;99.90
16879;DHT22;8556;52.218;9.884;2023-09-30T12:39:35;20.10;99.90
16879;DHT22;8556;52.218;9.884;2023-09-30T12:42:02;20.00;99.90
16879;DHT22;8556;52.218;9.884;2023-09-30T12:44:34;19.80;99.90
16879;DHT22;8556;52.218;9.884;2023-09-30T12:47:01;19.80;99.90
16879;DHT22;8556;52.218;9.884;2023-09-30T12:49:28;19.80;99.90
16879;DHT22;8556;52.218;9.884;2023-09-30T12:51:55;19.90;99.90
16879;DHT22;8556;52.218;9.884;2023-09-30T12:54:23;19.80;99.90
16879;DHT22;8556;52.218;9.884;2023-09-30T12:56:52;19.80;99.90
16879;DHT22;8556;52.218;9.884;2023-09-30T12:59:18;19.60;99.90
16879;DHT22;8556;52.218;9.884;2023-09-30T13:01:49;19.70;99.90
16879;DHT22;8556;52.218;9.884;2023-09-30T13:04:16;20.00;99.90
16879;DHT22;8556;52.218;9.884;2023-09-30T13:06:44;20.50;99.90
16879;DHT22;8556;52.218;9.884;2023-09-30T13:09:11;20.80;99.90
16879;DHT22;8556;52.218;9.884;2023-09-30T13:11:38;20.40;99.90
16879;DHT22;8556;52.218;9.884;2023-09-30T13:14:07;20.20;99.90
16879;DHT22;8556;52.218;9.884;2023-09-30T13:16:33;20.20;99.90
16879;DHT22;8556;52.218;9.884;2023-09-30T13:19:00;20.70;99.90
16879;DHT22;8556;52.218;9.884;2023-09-30T13:21:28;21.00;99.90
16879;DHT22;8556;52.218;9.884;2023-09-30T13:23:55;21.00;99.90
16879;DHT22;8556;52.218;9.884;2023-09-30T13:26:22;21.40;99.90
16879;DHT22;8556;52.218;9.884;2023-09-30T13:28:49;21.30;99.90
16879;DHT22;8556;52.218;9.884;2023-09-30T13:31:17;21.30;99.90
16879;DHT22;8556;52.218;9.884;2023-09-30T13:33:43;21.30;99.90
16879;DHT22;8556;52.218;9.884;2023-09-30T13:36:12;21.60;99.90
16879;DHT22;8556;52.218;9.884;2023-09-30T13:38:38;21.50;99.90
16879;DHT22;8556;52.218;9.884;2023-09-30T13:41:05;21.50;99.90
16879;DHT22;8556;52.218;9.884;2023-09-30T13:43:32;21.40;99.90
16879;DHT22;8556;52.218;9.884;2023-09-30T13:46:03;21.30;99.90
16879;DHT22;8556;52.218;9.884;2023-09-30T13:48:33;21.40;99.90
16879;DHT22;8556;52.218;9.884;2023-09-30T13:51:04;21.80;99.90
16879;DHT22;8556;52.218;9.884;2023-09-30T13:53:31;21.60;99.90
16879;DHT22;8556;52.218;9.884;2023-09-30T13:55:58;21.80;99.90
16879;DHT22;8556;52.218;9.884;2023-09-30T13:58:25;21.40;99.90
16879;DHT22;8556;52.218;9.884;2023-09-30T14:00:52;20.90;99.90
16879;DHT22;8556;52.218;9.884;2023-09-30T14:03:19;20.70;99.90
16879;DHT22;8556;52.218;9.884;2023-09-30T14:05:47;20.60;99.90
16879;DHT22;8556;52.218;9.884;2023-09-30T14:08:14;20.70;99.90
16879;DHT22;8556;52.218;9.884;2023-09-30T14:10:42;20.60;99.90
16879;DHT22;8556;52.218;9.884;2023-09-30T14:13:09;20.60;99.90
16879;DHT22;8556;52.218;9.884;2023-09-30T14:15:36;20.60;99.90
16879;DHT22;8556;52.218;9.884;2023-09-30T14:18:04;20.20;99.90
16879;DHT22;8556;52.218;9.884;2023-09-30T14:20:31;20.10;99.90
16879;DHT22;8556;52.218;9.884;2023-09-30T14:23:00;19.90;99.90
16879;DHT22;8556;52.218;9.884;2023-09-30T14:25:27;20.00;99.90
16879;DHT22;8556;52.218;9.884;2023-09-30T14:27:54;19.90;99.90
16879;DHT22;8556;52.218;9.884;2023-09-30T14:30:22;19.60;99.90
16879;DHT22;8556;52.218;9.884;2023-09-30T14:32:50;19.60;99.90
16879;DHT22;8556;52.218;9.884;2023-09-30T14:35:16;19.70;99.90
16879;DHT22;8556;52.218;9.884;2023-09-30T14:37:44;19.70;99.90
16879;DHT22;8556;52.218;9.884;2023-09-30T14:40:12;19.60;99.90
16879;DHT22;8556;52.218;9.884;2023-09-30T14:42:39;19.60;99.90
16879;DHT22;8556;52.218;9.884;2023-09-30T14:45:08;19.50;99.90
16879;DHT22;8556;52.218;9.884;2023-09-30T14:47:36;19.50;99.90
16879;DHT22;8556;52.218;9.884;2023-09-30T14:50:05;19.40;99.90
16879;DHT22;8556;52.218;9.884;2023-09-30T14:52:32;19.40;99.90
16879;DHT22;8556;52.218;9.884;2023-09-30T14:54:59;19.40;99.90
16879;DHT22;8556;52.218;9.884;2023-09-30T14:57:27;19.40;99.90
16879;DHT22;8556;52.218;9.884;2023-09-30T14:59:57;19.30;99.90
16879;DHT22;8556;52.218;9.884;2023-09-30T15:02:24;19.50;99.90
16879;DHT22;8556;52.218;9.884;2023-09-30T15:04:52;19.50;99.90
16879;DHT22;8556;52.218;9.884;2023-09-30T15:07:19;19.60;99.90
16879;DHT22;8556;52.218;9.884;2023-09-30T15:09:46;19.80;99.90
16879;DHT22;8556;52.218;9.884;2023-09-30T15:12:13;20.00;99.90
16879;DHT22;8556;52.218;9.884;2023-09-30T15:14:41;19.80;99.90
16879;DHT22;8556;52.218;9.884;2023-09-30T15:17:08;20.00;99.90
16879;DHT22;8556;52.218;9.884;2023-09-30T15:19:34;20.00;99.90
16879;DHT22;8556;52.218;9.884;2023-09-30T15:22:01;19.80;99.90
16879;DHT22;8556;52.218;9.884;2023-09-30T15:24:28;19.80;99.90
16879;DHT22;8556;52.218;9.884;2023-09-30T15:26:55;19.70;99.90
16879;DHT22;8556;52.218;9.884;2023-09-30T15:29:22;19.80;99.90
16879;DHT22;8556;52.218;9.884;2023-09-30T15:31:50;19.70;99.90
16879;DHT22;8556;52.218;9.884;2023-09-30T15:34:17;19.70;99.90
16879;DHT22;8556;52.218;9.884;2023-09-30T15:36:44;19.70;99.90
16879;DHT22;8556;52.218;9.884;2023-09-30T15:39:11;19.70;99.90
16879;DHT22;8556;52.218;9.884;2023-09-30T15:41:38;19.60;99.90
16879;DHT22;8556;52.218;9.884;2023-09-30T15:44:05;19.60;99.90
16879;DHT22;8556;52.218;9.884;2023-09-30T15:46:32;19.50;99.90
16879;DHT22;8556;52.218;9.884;2023-09-30T15:49:00;19.40;99.90
16879;DHT22;8556;52.218;9.884;2023-09-30T15:51:27;19.20;99.90